Winnemucca, NV

4:10 PM PST on December 24, 2014 (GMT -0800)
Winnemucca Municipal | Change Station
CLOSE
Current Station
Airport
Location: Winnemucca,
Elevation: 4311 ft
Nearby Weather Stations
Active Advisory: Winter Weather Advisory

Elev 4311 ft 40.90 °N, 117.81 °W | Updated 14 minutes ago

Overcast
Overcast
50 °F
Feels Like 50 °F
N
33
Wind Variable Wind from SW
Gusts 47 mph

Today
High -- | Low -- °F
--% Chance of Precip.
Yesterday
High -- | Low -- °F
Precip. -- in
7:14 AM 4:27 PM
Waxing Crescent, 12% visible
Pressure 29.50 in
Visibility 10.0 miles
Clouds Mostly Cloudy 7000 ft
Overcast 9000 ft
Dew Point 32 °F
Humidity 50%
Rainfall 0.00 in
Snow Depth Not available.
UV 0 out of 12
Pollen .10 out of 12
Air Quality Not available.
Flu Activity Not available.
METAR KWMC 242356Z AUTO 22029G41KT 10SM -RA BKN070 OVC090 10/00 A2953 RMK AO2 PK WND 23043/2342 RAB55 SLP989 P0000 60000 T01000000 10128 20050 56041

More Conditions Fewer Conditions

Pressure 29.50 in
Visibility 10.0 miles
Clouds Mostly Cloudy 7000 ft
Overcast 9000 ft
Dew Point 32 °F
Humidity 50%
Rainfall 0.00 in
Snow Depth Not available.
UV 0 out of 12
Pollen .10 out of 12
Air Quality Not available.
Flu Activity Not available.
METAR KWMC 242356Z AUTO 22029G41KT 10SM -RA BKN070 OVC090 10/00 A2953 RMK AO2 PK WND 23043/2342 RAB55 SLP989 P0000 60000 T01000000 10128 20050 56041

More Conditions Fewer Conditions

10-Day Weather Forecast

Almanac

Astronomy

Dec. 24, 2014 Rise Set
Actual Time
Civil Twilight
Nautical Twilight
Astronomical Twilight
Moon
Length of Visible Light
Length of Day
Tomorrow will be .
, % of the Moon is Illuminated

Today's Extremes

State Highs State Lows

Community

WunderPhotos

Upload Photos

1,780,188 photos uploaded!

WunderBlogs® & News

Nearby

Air Quality

  Air Quality AQ Index Pollutant
Not available.

Snow Depth

Station Depth Elevation

Earthquake Activity

City Distance Mag. Time & Date
Minimum magnitude displayed is 2.5.

Coastal Water Temperatures

Place Temperature

Nearby Weather Stations